»·PEaware :: N409LP L52-L88

N409LP :: L52-L88

FLIGHT INFORMATION

Flight Status: Arrived
Operator: Privately registered:
United States
More flights under this callsign
Pilot: Mike T. (22492)
Aircraft: CESSNA 172 SKYHAWK
(C172)
More flights by this aircraft type
Origin: L52 Oceano Co
United States
Destination: L88 New Cuyama
United States
More flights between these airports :: More routes between these airports
Route: DIRECT
File this flight plan on PilotEdge
Remarks: CAT I
Altitude:
(Current/Filed)
9,500ft
Speed:
(Current/Filed)
105kts
Departed: 25-Jan-19 02:38 PM
Arrived: 25-Jan-19 03:11 PM
Distance/Time
Traveled:
47nm/0:33
Distance/Time
To Go:
Arrived

Flight Plot

Page will automatically refresh every two minutes.


Map Options




Map Legend


Flown Route
Filed Route
Departure Airport
Arrival Airport
Navaid (VOR, NDB)
Fix

Horizontal Profiles

Position Reports

Time Latitude Longitude Heading Altitude Ground
Speed
25-Jan-19 14:26 35.102275 -120.622530 210 16ft 0kts
25-Jan-19 14:27 35.102274 -120.622530 211 16ft 0kts
25-Jan-19 14:28 35.102274 -120.622530 211 16ft 0kts
25-Jan-19 14:29 35.102274 -120.622530 211 16ft 0kts
25-Jan-19 14:30 35.102274 -120.622530 211 16ft 0kts
25-Jan-19 14:31 35.101583 -120.622344 211 16ft 7kts
25-Jan-19 14:32 35.100679 -120.621609 122 17ft 5kts
25-Jan-19 14:33 35.099707 -120.619801 122 17ft 4kts
25-Jan-19 14:34 35.099459 -120.619473 45 17ft 0kts
25-Jan-19 14:35 35.099459 -120.619473 45 17ft 0kts
25-Jan-19 14:36 35.099888 -120.619176 304 17ft 0kts
25-Jan-19 14:37 35.108744 -120.634784 307 609ft 66kts
25-Jan-19 14:38 35.112899 -120.653764 212 1453ft 73kts
25-Jan-19 14:39 35.099366 -120.640961 98 2261ft 74kts
25-Jan-19 14:40 35.096347 -120.615741 93 3018ft 76kts
25-Jan-19 14:41 35.092893 -120.589252 94 3742ft 79kts
25-Jan-19 14:42 35.089769 -120.561862 90 4464ft 82kts
25-Jan-19 14:43 35.086917 -120.533782 93 5121ft 84kts
25-Jan-19 14:44 35.082975 -120.505032 85 5834ft 85kts
25-Jan-19 14:45 35.078525 -120.475764 89 6535ft 87kts
25-Jan-19 14:46 35.074014 -120.445910 93 7200ft 90kts
25-Jan-19 14:47 35.069096 -120.415627 96 7831ft 92kts
25-Jan-19 14:48 35.063293 -120.392177 97 8293ft 93kts
25-Jan-19 14:50 35.056328 -120.361307 90 8862ft 93kts
25-Jan-19 14:51 35.050808 -120.330114 90 9389ft 94kts
25-Jan-19 14:52 35.044860 -120.294336 90 9612ft 123kts
25-Jan-19 14:53 35.038289 -120.253879 95 9522ft 115kts
25-Jan-19 14:54 35.030049 -120.215170 95 9400ft 117kts
25-Jan-19 14:55 35.022748 -120.175912 93 9447ft 117kts
25-Jan-19 14:56 35.014445 -120.136427 100 9534ft 120kts
25-Jan-19 14:57 35.004914 -120.096593 99 9586ft 121kts
25-Jan-19 14:58 34.995167 -120.056625 99 9588ft 122kts
25-Jan-19 14:59 34.985977 -120.016087 98 9346ft 124kts
25-Jan-19 15:00 34.978965 -119.974816 103 8817ft 124kts
25-Jan-19 15:01 34.969672 -119.934314 106 8288ft 120kts
25-Jan-19 15:02 34.960059 -119.894720 109 7501ft 118kts
25-Jan-19 15:03 34.950524 -119.856703 110 6716ft 115kts
25-Jan-19 15:04 34.941293 -119.820102 108 5809ft 110kts
25-Jan-19 15:05 34.934214 -119.784209 108 4803ft 104kts
25-Jan-19 15:06 34.925944 -119.751183 109 3828ft 97kts
25-Jan-19 15:07 34.925009 -119.720469 75 3269ft 89kts
25-Jan-19 15:08 34.925750 -119.691536 120 3121ft 84kts
25-Jan-19 15:08 34.925921 -119.675066 24 2876ft 65kts
25-Jan-19 15:09 34.937875 -119.680443 290 2213ft 49kts
25-Jan-19 15:11 34.941127 -119.688463 295 2163ft 19kts
25-Jan-19 15:12 34.942840 -119.690964 84 2155ft 3kts
25-Jan-19 15:12 34.942901 -119.690535 174 2156ft 0kts
25-Jan-19 15:13 34.942901 -119.690535 174 2156ft 0kts
25-Jan-19 15:14 34.942901 -119.690535 174 2156ft 0kts
25-Jan-19 15:15 34.942901 -119.690535 174 2156ft 0kts
25-Jan-19 15:16 34.942901 -119.690535 174 2156ft 0kts
25-Jan-19 15:17 34.942901 -119.690535 174 2156ft 0kts
25-Jan-19 15:18 34.942901 -119.690535 174 2156ft 0kts
25-Jan-19 15:19 34.942901 -119.690535 174 2156ft 0kts
25-Jan-19 15:20 34.942901 -119.690535 174 2156ft 0kts
25-Jan-19 15:21 34.942901 -119.690535 174 2156ft 0kts
25-Jan-19 15:22 34.942901 -119.690535 174 2156ft 0kts
25-Jan-19 15:23 34.942901 -119.690535 174 2156ft 0kts
25-Jan-19 15:24 34.942901 -119.690535 174 2156ft 0kts
25-Jan-19 15:25 34.942901 -119.690535 174 2156ft 0kts

Navigation Log

Ident Type
Flight plan parsing failed, navigation log unavailable